Terminal Aerodrome Forecast
Issued by NWS

Home | Current Version | Previous Version | Text Only | Print | Product List | Glossary On
Versions: 1 2 3 4 5 6 7 8 9 10 11 12 13 14 15 16 17 18 19 20 21 22 23 24 25 26
000
FTUS44 KLIX 240500
TAFHUM
TAF
KHUM 240520Z 2406/2506 00000KT P6SM SKC
      TEMPO 2406/2408 5SM BR
     FM240800 VRB02KT 5SM BR SCT010
      TEMPO 2409/2413 2SM BR
     FM241500 17009KT P6SM SCT035
     FM250100 16008KT P6SM SCT250=

USA.gov is the U.S. government's official web portal to all federal, state and local government web resources and services.